createdAt,value
2018-09-15T00:02:19.701Z,19.69
2018-09-15T00:04:50.296Z,19.73
2018-09-15T00:07:21.237Z,19.79
2018-09-15T00:09:51.582Z,19.78
2018-09-15T00:12:21.911Z,19.70
2018-09-15T00:14:52.298Z,19.57
2018-09-15T00:17:23.110Z,19.51
2018-09-15T00:19:53.704Z,19.51
2018-09-15T00:22:24.131Z,19.60
2018-09-15T00:24:54.621Z,19.66
2018-09-15T00:27:26.103Z,19.52
2018-09-15T00:29:55.972Z,19.52
2018-09-15T00:32:26.451Z,19.37
2018-09-15T00:34:56.763Z,19.36
2018-09-15T00:37:27.726Z,19.23
2018-09-15T00:39:57.992Z,19.23
2018-09-15T00:42:28.363Z,19.17
2018-09-15T00:44:59.162Z,19.21
2018-09-15T00:47:30.731Z,19.15
2018-09-15T00:50:01.070Z,19.16
2018-09-15T00:52:31.194Z,19.15
2018-09-15T00:55:01.477Z,19.15
2018-09-15T00:57:32.239Z,19.17
2018-09-15T01:00:02.682Z,19.11
2018-09-15T01:02:33.562Z,19.09
2018-09-15T01:05:04.070Z,19.07
2018-09-15T01:07:34.920Z,19.08
2018-09-15T01:10:05.382Z,18.88
2018-09-15T01:12:35.898Z,18.90
2018-09-15T01:15:06.339Z,18.88
2018-09-15T01:17:37.042Z,18.11
2018-09-15T01:20:07.388Z,17.62
2018-09-15T01:22:37.893Z,18.11
2018-09-15T01:25:08.043Z,17.78
2018-09-15T01:27:39.447Z,17.84
2018-09-15T01:30:09.885Z,18.13
2018-09-15T01:32:40.452Z,18.33
2018-09-15T01:35:10.782Z,18.58
2018-09-15T01:37:41.481Z,18.25
2018-09-15T01:40:12.031Z,17.81
2018-09-15T01:42:42.366Z,18.34
2018-09-15T01:45:12.674Z,18.19
2018-09-15T01:47:43.308Z,18.51
2018-09-15T01:50:13.903Z,18.38
2018-09-15T01:52:44.123Z,18.35
2018-09-15T01:55:14.552Z,18.58
2018-09-15T01:59:10.459Z,18.57
2018-09-15T02:01:40.861Z,18.28
2018-09-15T02:04:11.219Z,17.96
2018-09-15T02:06:41.897Z,17.53
2018-09-15T02:09:15.079Z,17.57
2018-09-15T02:11:45.500Z,17.24
2018-09-15T02:14:16.216Z,17.26
2018-09-15T02:16:47.690Z,17.50
2018-09-15T02:19:18.246Z,18.08
2018-09-15T02:21:48.760Z,18.31
2018-09-15T02:24:19.164Z,18.29
2018-09-15T02:26:50.041Z,18.12
2018-09-15T02:29:20.305Z,17.91
2018-09-15T02:31:50.761Z,17.87
2018-09-15T02:34:21.328Z,17.88
2018-09-15T02:36:52.449Z,17.78
2018-09-15T02:39:22.700Z,17.92
2018-09-15T02:41:52.703Z,17.95
2018-09-15T02:44:23.055Z,17.97
2018-09-15T02:46:53.830Z,17.97
2018-09-15T02:49:24.464Z,18.02
2018-09-15T02:51:55.083Z,17.94
2018-09-15T02:54:25.614Z,17.81
2018-09-15T02:56:56.462Z,17.88
2018-09-15T02:59:26.770Z,17.97
2018-09-15T03:01:56.993Z,17.94
2018-09-15T03:04:27.741Z,17.88
2018-09-15T03:06:58.517Z,17.82
2018-09-15T03:09:28.890Z,17.81
2018-09-15T03:11:59.546Z,17.74
2018-09-15T03:14:30.029Z,17.38
2018-09-15T03:17:01.308Z,17.60
2018-09-15T03:19:31.643Z,17.72
2018-09-15T03:22:02.218Z,17.75
2018-09-15T03:24:32.566Z,17.62
2018-09-15T03:27:04.088Z,17.60
2018-09-15T03:29:35.241Z,17.60
2018-09-15T03:32:05.981Z,17.30
2018-09-15T03:34:36.819Z,17.34
2018-09-15T03:37:07.256Z,17.36
2018-09-15T03:39:37.650Z,17.05
2018-09-15T03:42:08.299Z,17.17
2018-09-15T03:44:38.833Z,17.29
2018-09-15T03:47:11.004Z,17.44
2018-09-15T03:49:41.514Z,17.48
2018-09-15T03:52:11.786Z,17.48
2018-09-15T03:54:42.278Z,17.45
2018-09-15T03:57:13.283Z,17.64
2018-09-15T03:59:43.709Z,17.45
2018-09-15T04:02:14.066Z,17.19
2018-09-15T04:04:44.314Z,16.90
2018-09-15T04:07:15.209Z,17.14
2018-09-15T04:09:45.247Z,17.04
2018-09-15T04:12:15.678Z,17.05
2018-09-15T04:14:46.670Z,17.20
2018-09-15T04:17:17.781Z,17.15
2018-09-15T04:19:48.278Z,17.10
2018-09-15T04:22:18.494Z,17.15
2018-09-15T04:24:48.902Z,17.19
2018-09-15T04:27:19.457Z,17.31
2018-09-15T04:29:50.163Z,17.34
2018-09-15T04:32:20.735Z,17.30
2018-09-15T04:34:51.839Z,17.35
2018-09-15T04:37:22.169Z,17.32
2018-09-15T04:39:52.594Z,17.30
2018-09-15T04:42:22.751Z,17.40
2018-09-15T04:44:52.994Z,17.11
2018-09-15T04:47:55.327Z,17.39
2018-09-15T04:50:25.594Z,17.40
2018-09-15T04:52:55.970Z,17.18
2018-09-15T04:55:26.305Z,17.48
2018-09-15T04:57:56.794Z,17.44
2018-09-15T05:00:27.157Z,17.61
2018-09-15T05:02:57.478Z,17.75
2018-09-15T05:05:28.619Z,17.84
2018-09-15T05:07:58.803Z,17.85
2018-09-15T05:10:29.262Z,18.17
2018-09-15T05:12:59.783Z,18.17
2018-09-15T05:15:31.350Z,17.44
2018-09-15T05:18:01.537Z,17.63
2018-09-15T05:20:31.679Z,17.25
2018-09-15T05:23:01.883Z,16.65
2018-09-15T05:25:33.204Z,17.62
2018-09-15T05:28:03.655Z,16.91
2018-09-15T05:30:34.381Z,17.13
2018-09-15T05:33:04.814Z,17.51
2018-09-15T05:35:35.856Z,17.82
2018-09-15T05:38:06.032Z,17.41
2018-09-15T05:40:36.206Z,17.44
2018-09-15T05:43:06.349Z,17.98
2018-09-15T05:45:37.653Z,18.38
2018-09-15T05:48:08.298Z,17.92
2018-09-15T05:50:38.846Z,18.30
2018-09-15T05:53:09.175Z,19.31
2018-09-15T05:55:40.382Z,19.54
2018-09-15T05:58:10.845Z,19.37
2018-09-15T06:00:41.235Z,20.27
2018-09-15T06:03:11.752Z,19.87
2018-09-15T06:05:42.593Z,20.13
2018-09-15T06:08:13.086Z,20.89
2018-09-15T06:10:43.482Z,21.46
2018-09-15T06:13:14.002Z,21.47
2018-09-15T06:15:44.179Z,20.45
2018-09-15T06:18:13.942Z,21.36
2018-09-15T06:20:43.661Z,21.45
2018-09-15T06:23:13.428Z,21.81
2018-09-15T06:25:43.184Z,21.40
2018-09-15T06:28:13.019Z,21.21
2018-09-15T06:30:42.766Z,21.97
2018-09-15T06:33:12.400Z,21.90
2018-09-15T06:35:42.331Z,21.71
2018-09-15T06:38:12.068Z,22.64
2018-09-15T06:40:41.805Z,23.31
2018-09-15T06:43:12.640Z,23.33
2018-09-15T06:45:42.983Z,23.37
2018-09-15T06:48:12.752Z,23.99
2018-09-15T06:50:42.477Z,24.68
2018-09-15T06:53:12.104Z,24.73
2018-09-15T06:55:41.845Z,25.05
2018-09-15T06:58:11.454Z,24.87
2018-09-15T07:00:41.351Z,25.01
2018-09-15T07:03:11.202Z,24.91
2018-09-15T07:05:41.022Z,25.10
2018-09-15T07:08:10.810Z,25.13
2018-09-15T07:10:40.522Z,25.05
2018-09-15T07:13:11.045Z,25.44
2018-09-15T07:15:40.842Z,25.65
2018-09-15T07:18:10.774Z,26.61
2018-09-15T07:20:40.531Z,26.98
2018-09-15T07:23:10.206Z,27.88
2018-09-15T07:25:39.955Z,28.32
2018-09-15T07:28:09.677Z,28.20
2018-09-15T07:30:39.588Z,28.48
2018-09-15T07:33:09.990Z,28.62
2018-09-15T07:35:40.000Z,28.55
2018-09-15T07:38:09.660Z,28.70
2018-09-15T07:40:39.426Z,28.36
2018-09-15T07:43:09.462Z,28.54
2018-09-15T07:45:39.277Z,28.90
2018-09-15T07:48:09.046Z,28.76
2018-09-15T07:50:38.858Z,29.02
2018-09-15T07:53:08.666Z,29.23
2018-09-15T07:55:38.406Z,28.75
2018-09-15T07:58:08.198Z,29.50
2018-09-15T08:00:38.047Z,29.24
2018-09-15T08:03:07.721Z,29.25
2018-09-15T08:05:37.435Z,30.05
2018-09-15T08:08:07.227Z,30.07
2018-09-15T08:10:37.041Z,31.05
2018-09-15T08:13:06.849Z,30.81
2018-09-15T08:15:36.523Z,30.62
2018-09-15T08:18:06.316Z,30.92
2018-09-15T08:20:36.005Z,31.72
2018-09-15T08:23:06.607Z,31.71
2018-09-15T08:25:36.320Z,32.27
2018-09-15T08:28:06.228Z,32.62
2018-09-15T08:30:36.125Z,32.69
2018-09-15T08:33:06.014Z,31.81
2018-09-15T08:35:36.310Z,31.86
2018-09-15T08:38:06.218Z,31.93
2018-09-15T08:40:35.947Z,31.36
2018-09-15T08:43:06.344Z,31.19
2018-09-15T08:45:37.486Z,31.81
2018-09-15T08:48:07.550Z,31.50
2018-09-15T08:50:37.361Z,30.94
2018-09-15T08:53:07.271Z,31.82
2018-09-15T08:55:37.771Z,31.23
2018-09-15T08:58:07.447Z,30.75
2018-09-15T09:00:37.241Z,31.33
2018-09-15T09:03:07.147Z,31.57
2018-09-15T09:05:37.070Z,32.40
2018-09-15T09:08:06.942Z,32.14
2018-09-15T09:10:36.742Z,31.22
2018-09-15T09:13:06.472Z,32.53
2018-09-15T09:15:36.258Z,32.88
2018-09-15T09:18:06.093Z,34.10
2018-09-15T09:20:35.730Z,34.16
2018-09-15T09:23:05.634Z,33.69
2018-09-15T09:25:35.218Z,33.13
2018-09-15T09:28:05.017Z,34.03
2018-09-15T09:30:34.780Z,35.19
2018-09-15T09:33:04.736Z,36.35
2018-09-15T09:35:34.586Z,36.88
2018-09-15T09:38:04.934Z,35.83
2018-09-15T09:40:34.923Z,36.94
2018-09-15T09:43:04.721Z,36.50
2018-09-15T09:45:34.538Z,35.80
2018-09-15T09:48:04.197Z,36.22
2018-09-15T09:50:34.045Z,36.01
2018-09-15T09:53:03.785Z,36.80
2018-09-15T09:55:33.581Z,36.83
2018-09-15T09:58:03.576Z,37.74
2018-09-15T10:00:38.199Z,36.71
2018-09-15T10:03:08.024Z,35.63
2018-09-15T10:05:38.363Z,35.40
2018-09-15T10:08:08.194Z,35.09
2018-09-15T10:11:09.558Z,35.28
2018-09-15T10:13:39.334Z,36.15
2018-09-15T10:16:09.069Z,36.11
2018-09-15T10:18:38.940Z,36.01
2018-09-15T10:21:08.694Z,35.77
2018-09-15T10:23:38.453Z,35.40
2018-09-15T10:26:08.578Z,36.39
2018-09-15T10:28:38.372Z,37.37
2018-09-15T10:31:08.096Z,37.09
2018-09-15T10:33:37.983Z,37.29
2018-09-15T10:36:07.808Z,37.18
2018-09-15T10:38:38.093Z,37.27
2018-09-15T10:41:08.018Z,37.63
2018-09-15T10:43:37.760Z,37.43
2018-09-15T10:46:07.778Z,38.14
2018-09-15T10:48:37.521Z,38.26
2018-09-15T10:51:07.322Z,38.09
2018-09-15T10:53:37.146Z,39.20
2018-09-15T10:56:07.855Z,39.71
2018-09-15T10:58:37.718Z,39.13
2018-09-15T11:01:07.430Z,38.86
2018-09-15T11:03:37.781Z,38.29
2018-09-15T11:06:08.505Z,39.28
2018-09-15T11:08:38.734Z,39.52
2018-09-15T11:11:09.268Z,39.60
2018-09-15T11:13:39.669Z,38.96
2018-09-15T11:16:09.415Z,38.39
2018-09-15T11:18:39.206Z,38.13
2018-09-15T11:21:09.029Z,40.09
2018-09-15T11:23:38.820Z,40.85
2018-09-15T11:26:08.568Z,39.24
2018-09-15T11:28:38.307Z,39.64
2018-09-15T11:31:08.176Z,40.13
2018-09-15T11:33:38.239Z,38.80
2018-09-15T11:36:07.875Z,38.23
2018-09-15T11:38:37.742Z,38.22
2018-09-15T11:41:07.996Z,39.40
2018-09-15T11:43:37.972Z,39.56
2018-09-15T11:46:07.784Z,37.61
2018-09-15T11:48:37.684Z,36.72
2018-09-15T11:51:07.533Z,38.61
2018-09-15T11:53:37.359Z,37.80
2018-09-15T11:56:07.119Z,37.45
2018-09-15T11:58:36.894Z,37.20
2018-09-15T12:01:06.634Z,35.81
2018-09-15T12:03:36.457Z,35.61
2018-09-15T12:06:06.207Z,35.15
2018-09-15T12:08:35.971Z,35.06
2018-09-15T12:11:05.752Z,35.12
2018-09-15T12:13:36.003Z,33.43
2018-09-15T12:16:06.198Z,32.41
2018-09-15T12:18:36.759Z,31.48
2018-09-15T12:21:07.172Z,32.49
2018-09-15T12:23:37.598Z,33.17
2018-09-15T12:26:08.142Z,34.55
2018-09-15T12:28:38.654Z,34.15
2018-09-15T12:31:09.084Z,35.19
2018-09-15T12:33:40.558Z,35.45
2018-09-15T12:36:10.806Z,36.05
2018-09-15T12:38:41.049Z,36.41
2018-09-15T12:41:11.586Z,35.89
2018-09-15T12:43:42.248Z,36.48
2018-09-15T12:46:12.561Z,35.56
2018-09-15T12:48:43.207Z,35.77
2018-09-15T12:51:13.757Z,35.74
2018-09-15T12:53:45.140Z,36.07
2018-09-15T12:56:15.542Z,34.81
2018-09-15T12:58:45.635Z,34.99
2018-09-15T13:01:15.827Z,34.50
2018-09-15T13:03:46.673Z,33.94
2018-09-15T13:06:17.288Z,35.03
2018-09-15T13:08:47.821Z,34.56
2018-09-15T13:11:18.370Z,34.49
2018-09-15T13:13:49.498Z,34.71
2018-09-15T13:16:19.969Z,34.47
2018-09-15T13:18:50.486Z,35.48
2018-09-15T13:21:20.806Z,35.45
2018-09-15T13:23:51.510Z,35.39
2018-09-15T13:26:22.106Z,34.82
2018-09-15T13:28:52.425Z,35.35
2018-09-15T13:31:23.224Z,35.36
2018-09-15T13:33:54.227Z,35.65
2018-09-15T13:36:24.734Z,35.68
2018-09-15T13:38:55.279Z,35.69
2018-09-15T13:41:26.059Z,35.74
2018-09-15T13:43:57.383Z,35.62
2018-09-15T13:46:28.110Z,35.02
2018-09-15T13:48:58.939Z,34.75
2018-09-15T13:51:29.263Z,34.91
2018-09-15T13:54:00.477Z,35.03
2018-09-15T13:56:30.730Z,33.49
2018-09-15T13:59:01.220Z,33.69
2018-09-15T14:01:31.680Z,33.16
2018-09-15T14:04:02.478Z,33.48
2018-09-15T14:06:32.958Z,33.80
2018-09-15T14:09:03.935Z,32.95
2018-09-15T14:11:34.306Z,33.41
2018-09-15T14:14:05.174Z,33.71
2018-09-15T14:16:35.655Z,32.71
2018-09-15T14:19:06.103Z,33.45
2018-09-15T14:21:37.624Z,34.05
2018-09-15T14:24:08.998Z,33.43
2018-09-15T14:26:39.602Z,33.68
2018-09-15T14:29:10.009Z,34.43
2018-09-15T14:31:40.337Z,33.49
2018-09-15T14:34:11.014Z,33.60
2018-09-15T14:36:41.376Z,33.93
2018-09-15T14:39:12.593Z,32.96
2018-09-15T14:41:43.082Z,33.07
2018-09-15T14:44:13.710Z,33.61
2018-09-15T14:46:43.971Z,33.74
2018-09-15T14:49:14.395Z,33.26
2018-09-15T14:51:44.702Z,33.15
2018-09-15T14:54:15.627Z,33.01
2018-09-15T14:56:45.887Z,32.78
2018-09-15T14:59:16.548Z,32.15
2018-09-15T15:01:47.229Z,31.60
2018-09-15T15:04:18.320Z,31.55
2018-09-15T15:06:48.577Z,31.16
2018-09-15T15:09:18.917Z,31.49
2018-09-15T15:11:49.455Z,32.27
2018-09-15T15:14:21.285Z,32.38
2018-09-15T15:16:51.794Z,32.16
2018-09-15T15:19:21.527Z,32.15
2018-09-15T15:21:51.538Z,31.34
2018-09-15T15:24:22.081Z,31.62
2018-09-15T15:26:51.646Z,31.45
2018-09-15T15:29:21.348Z,30.79
2018-09-15T15:31:51.038Z,30.49
2018-09-15T15:34:20.752Z,30.16
2018-09-15T15:36:50.628Z,30.21
2018-09-15T15:39:20.511Z,30.34
2018-09-15T15:42:53.640Z,30.16
2018-09-15T15:45:23.612Z,29.11
2018-09-15T15:47:53.590Z,27.36
2018-09-15T15:50:23.449Z,28.56
2018-09-15T15:52:53.190Z,29.00
2018-09-15T15:55:23.180Z,28.80
2018-09-15T15:57:52.943Z,28.55
2018-09-15T16:00:22.901Z,28.41
2018-09-15T16:02:52.723Z,28.09
2018-09-15T16:05:22.421Z,28.22
2018-09-15T16:07:52.160Z,27.99
2018-09-15T16:10:21.818Z,27.65
2018-09-15T16:12:51.505Z,28.13
2018-09-15T16:16:23.958Z,28.38
2018-09-15T16:18:53.690Z,28.18
2018-09-15T16:21:23.434Z,28.07
2018-09-15T16:23:53.309Z,28.01
2018-09-15T16:26:23.312Z,28.14
2018-09-15T16:28:53.298Z,27.83
2018-09-15T16:31:22.985Z,27.38
2018-09-15T16:33:52.939Z,27.50
2018-09-15T16:36:22.888Z,27.28
2018-09-15T16:38:52.771Z,27.36
2018-09-15T16:41:23.169Z,27.57
2018-09-15T16:43:53.696Z,27.35
2018-09-15T16:46:23.850Z,27.29
2018-09-15T16:48:54.062Z,26.87
2018-09-15T16:51:24.986Z,27.15
2018-09-15T16:53:55.595Z,26.81
2018-09-15T16:56:56.598Z,26.64
2018-09-15T16:59:26.802Z,26.37
2018-09-15T17:01:57.830Z,26.38
2018-09-15T17:04:28.358Z,26.65
2018-09-15T17:06:58.679Z,26.66
2018-09-15T17:09:30.099Z,26.91
2018-09-15T17:12:00.368Z,26.87
2018-09-15T17:14:30.494Z,27.00
2018-09-15T17:17:00.800Z,26.82
2018-09-15T17:19:31.923Z,26.39
2018-09-15T17:22:02.020Z,26.29
2018-09-15T17:24:32.487Z,26.34
2018-09-15T17:27:02.853Z,26.53
2018-09-15T17:29:33.814Z,26.65
2018-09-15T17:32:04.068Z,26.74
2018-09-15T17:34:34.468Z,26.12
2018-09-15T17:37:04.847Z,26.11
2018-09-15T17:39:36.265Z,25.94
2018-09-15T17:42:06.854Z,26.10
2018-09-15T17:44:37.435Z,26.30
2018-09-15T17:47:07.718Z,25.96
2018-09-15T17:49:39.361Z,25.62
2018-09-15T17:52:09.794Z,25.52
2018-09-15T17:54:40.278Z,25.55
2018-09-15T17:57:10.769Z,25.67
2018-09-15T17:59:41.996Z,25.88
2018-09-15T18:02:12.157Z,25.68
2018-09-15T18:04:42.628Z,25.87
2018-09-15T18:07:13.058Z,25.58
2018-09-15T18:09:44.136Z,25.15
2018-09-15T18:12:14.370Z,24.61
2018-09-15T18:14:44.604Z,24.06
2018-09-15T18:17:15.066Z,24.66
2018-09-15T18:19:46.321Z,24.99
2018-09-15T18:22:16.729Z,24.71
2018-09-15T18:24:47.168Z,24.33
2018-09-15T18:27:17.678Z,24.69
2018-09-15T18:29:48.912Z,23.82
2018-09-15T18:32:19.026Z,23.94
2018-09-15T18:34:49.842Z,23.52
2018-09-15T18:37:20.130Z,23.63
2018-09-15T18:39:51.786Z,23.47
2018-09-15T18:42:22.246Z,23.38
2018-09-15T18:44:52.675Z,23.32
2018-09-15T18:47:22.660Z,23.00
2018-09-15T18:49:53.818Z,22.88
2018-09-15T18:52:23.935Z,22.68
2018-09-15T18:54:54.542Z,22.64
2018-09-15T18:57:24.811Z,22.52
2018-09-15T18:59:56.051Z,22.34
2018-09-15T19:02:26.309Z,22.42
2018-09-15T19:04:56.850Z,22.39
2018-09-15T19:07:27.496Z,22.40
2018-09-15T19:09:58.362Z,22.38
2018-09-15T19:12:28.528Z,22.38
2018-09-15T19:14:59.063Z,22.48
2018-09-15T19:17:29.428Z,22.26
2018-09-15T19:20:00.084Z,22.32
2018-09-15T19:22:30.481Z,22.43
2018-09-15T19:25:01.074Z,22.32
2018-09-15T19:27:31.452Z,22.43
2018-09-15T19:30:02.749Z,22.31
2018-09-15T19:32:32.908Z,22.28
2018-09-15T19:35:03.614Z,22.16
2018-09-15T19:37:33.853Z,22.36
2018-09-15T19:40:05.928Z,22.49
2018-09-15T19:42:36.292Z,22.28
2018-09-15T19:45:07.010Z,22.67
2018-09-15T19:47:37.239Z,22.41
2018-09-15T19:50:08.649Z,22.15
2018-09-15T19:52:39.181Z,22.09
2018-09-15T19:55:09.814Z,22.18
2018-09-15T19:57:40.322Z,22.74
2018-09-15T20:00:11.323Z,22.99
2018-09-15T20:02:41.601Z,23.08
2018-09-15T20:05:12.150Z,23.19
2018-09-15T20:07:42.451Z,23.47
2018-09-15T20:10:12.984Z,23.46
2018-09-15T20:12:43.501Z,23.06
2018-09-15T20:15:24.064Z,22.31
2018-09-15T20:17:53.011Z,22.24
2018-09-15T20:20:22.346Z,21.89
2018-09-15T20:22:54.294Z,21.91
2018-09-15T20:25:24.358Z,21.85
2018-09-15T20:27:54.720Z,22.08
2018-09-15T20:30:25.366Z,21.93
2018-09-15T20:32:56.008Z,21.76
2018-09-15T20:35:26.242Z,21.79
2018-09-15T20:37:56.627Z,22.08
2018-09-15T20:40:28.097Z,21.75
2018-09-15T20:42:58.172Z,20.00
2018-09-15T20:45:28.837Z,21.68
2018-09-15T20:47:59.306Z,21.75
2018-09-15T20:50:29.724Z,21.69
2018-09-15T20:53:00.247Z,22.07
2018-09-15T20:55:30.410Z,22.44
2018-09-15T20:58:00.343Z,22.68
2018-09-15T21:00:31.241Z,22.88
2018-09-15T21:03:01.654Z,22.99
2018-09-15T21:05:31.838Z,23.15
2018-09-15T21:08:02.100Z,23.29
2018-09-15T21:10:33.327Z,23.17
2018-09-15T21:13:03.964Z,23.19
2018-09-15T21:15:34.286Z,23.10
2018-09-15T21:18:04.727Z,22.70
2018-09-15T21:20:35.374Z,22.71
2018-09-15T21:23:05.995Z,22.70
2018-09-15T21:25:36.191Z,22.57
2018-09-15T21:28:06.660Z,22.41
2018-09-15T21:30:37.542Z,22.63
2018-09-15T21:33:08.290Z,22.61
2018-09-15T21:35:38.703Z,22.35
2018-09-15T21:38:09.138Z,22.25
2018-09-15T21:40:40.394Z,22.10
2018-09-15T21:43:10.882Z,22.10
2018-09-15T21:45:41.605Z,22.21
2018-09-15T21:48:12.016Z,22.32
2018-09-15T21:50:43.490Z,22.40
2018-09-15T21:53:13.814Z,22.41
2018-09-15T21:55:44.134Z,22.35
2018-09-15T21:58:14.667Z,22.35
2018-09-15T22:00:45.647Z,22.34
2018-09-15T22:03:18.413Z,22.31
2018-09-15T22:05:49.051Z,21.93
2018-09-15T22:08:19.680Z,21.64
2018-09-15T22:10:50.377Z,21.57
2018-09-15T22:13:20.832Z,20.89
2018-09-15T22:15:51.275Z,20.88
2018-09-15T22:18:21.694Z,21.20
2018-09-15T22:20:52.694Z,21.63
2018-09-15T22:23:23.220Z,21.66
2018-09-15T22:25:53.648Z,21.82
2018-09-15T22:28:24.106Z,21.72
2018-09-15T22:30:55.986Z,20.99
2018-09-15T22:33:26.519Z,21.10
2018-09-15T22:35:57.095Z,21.44
2018-09-15T22:38:27.562Z,21.60
2018-09-15T22:40:58.707Z,21.60
2018-09-15T22:43:29.026Z,21.67
2018-09-15T22:45:59.717Z,21.63
2018-09-15T22:48:30.201Z,21.31
2018-09-15T22:51:01.388Z,21.61
2018-09-15T22:53:32.132Z,21.69
2018-09-15T22:56:02.396Z,21.68
2018-09-15T22:58:32.802Z,21.60
2018-09-15T23:01:04.185Z,21.65
2018-09-15T23:03:34.657Z,21.56
2018-09-15T23:06:05.130Z,21.15
2018-09-15T23:08:35.633Z,21.10
2018-09-15T23:11:06.678Z,21.13
2018-09-15T23:13:37.245Z,21.22
2018-09-15T23:16:07.834Z,20.64
2018-09-15T23:18:38.267Z,21.11
2018-09-15T23:21:09.252Z,21.28
2018-09-15T23:23:39.477Z,21.24
2018-09-15T23:26:09.891Z,21.31
2018-09-15T23:28:40.187Z,21.34
2018-09-15T23:31:11.186Z,20.93
2018-09-15T23:33:41.802Z,20.28
2018-09-15T23:36:12.425Z,19.80
2018-09-15T23:38:42.946Z,19.69
2018-09-15T23:41:14.341Z,20.36
2018-09-15T23:43:44.973Z,20.38
2018-09-15T23:46:15.078Z,20.60
2018-09-15T23:48:45.225Z,20.66
2018-09-15T23:51:16.117Z,20.40
2018-09-15T23:53:46.638Z,20.70
2018-09-15T23:56:17.322Z,20.77
2018-09-15T23:58:47.702Z,20.41
